sensor_id;sensor_type;location;lat;lon;timestamp;P1;durP1;ratioP1;P2;durP2;ratioP2
14817;SDS011;7500;57.698;11.986;2023-08-07T00:00:22;2.43;;;2.00;;
14817;SDS011;7500;57.698;11.986;2023-08-07T00:02:49;3.50;;;2.10;;
14817;SDS011;7500;57.698;11.986;2023-08-07T00:05:16;4.20;;;2.07;;
14817;SDS011;7500;57.698;11.986;2023-08-07T00:07:42;3.97;;;1.90;;
14817;SDS011;7500;57.698;11.986;2023-08-07T00:10:10;1.90;;;1.80;;
14817;SDS011;7500;57.698;11.986;2023-08-07T00:12:37;2.73;;;1.83;;
14817;SDS011;7500;57.698;11.986;2023-08-07T00:15:05;2.40;;;1.80;;
14817;SDS011;7500;57.698;11.986;2023-08-07T00:17:32;3.57;;;2.43;;
14817;SDS011;7500;57.698;11.986;2023-08-07T00:19:59;3.30;;;1.97;;
14817;SDS011;7500;57.698;11.986;2023-08-07T00:22:25;2.80;;;1.77;;
14817;SDS011;7500;57.698;11.986;2023-08-07T00:24:52;3.10;;;1.80;;
14817;SDS011;7500;57.698;11.986;2023-08-07T00:27:18;2.90;;;1.60;;
14817;SDS011;7500;57.698;11.986;2023-08-07T00:29:45;2.13;;;1.50;;
14817;SDS011;7500;57.698;11.986;2023-08-07T00:32:13;1.57;;;1.47;;
14817;SDS011;7500;57.698;11.986;2023-08-07T00:34:39;2.53;;;1.73;;
14817;SDS011;7500;57.698;11.986;2023-08-07T00:37:06;1.60;;;1.50;;
14817;SDS011;7500;57.698;11.986;2023-08-07T00:39:32;1.60;;;1.50;;
14817;SDS011;7500;57.698;11.986;2023-08-07T00:41:59;2.47;;;1.67;;
14817;SDS011;7500;57.698;11.986;2023-08-07T00:44:26;1.50;;;1.40;;
14817;SDS011;7500;57.698;11.986;2023-08-07T00:46:52;1.90;;;1.60;;
14817;SDS011;7500;57.698;11.986;2023-08-07T00:49:21;1.63;;;1.53;;
14817;SDS011;7500;57.698;11.986;2023-08-07T00:51:48;1.73;;;1.50;;
14817;SDS011;7500;57.698;11.986;2023-08-07T00:54:15;1.80;;;1.50;;
14817;SDS011;7500;57.698;11.986;2023-08-07T00:56:44;2.97;;;1.53;;
14817;SDS011;7500;57.698;11.986;2023-08-07T00:59:12;1.50;;;1.40;;
14817;SDS011;7500;57.698;11.986;2023-08-07T01:02:16;2.70;;;1.43;;
14817;SDS011;7500;57.698;11.986;2023-08-07T01:04:44;1.93;;;1.33;;
14817;SDS011;7500;57.698;11.986;2023-08-07T01:07:12;2.30;;;1.13;;
14817;SDS011;7500;57.698;11.986;2023-08-07T01:09:39;2.83;;;1.50;;
14817;SDS011;7500;57.698;11.986;2023-08-07T01:12:08;2.80;;;1.37;;
14817;SDS011;7500;57.698;11.986;2023-08-07T01:14:37;1.27;;;1.20;;
14817;SDS011;7500;57.698;11.986;2023-08-07T01:17:08;1.23;;;1.13;;
14817;SDS011;7500;57.698;11.986;2023-08-07T01:19:36;1.83;;;1.27;;
14817;SDS011;7500;57.698;11.986;2023-08-07T01:22:07;1.57;;;1.30;;
14817;SDS011;7500;57.698;11.986;2023-08-07T01:24:34;1.70;;;1.33;;
14817;SDS011;7500;57.698;11.986;2023-08-07T01:27:02;1.70;;;1.50;;
14817;SDS011;7500;57.698;11.986;2023-08-07T01:29:30;1.60;;;1.50;;
14817;SDS011;7500;57.698;11.986;2023-08-07T01:32:01;1.83;;;1.37;;
14817;SDS011;7500;57.698;11.986;2023-08-07T01:34:30;1.47;;;1.37;;
14817;SDS011;7500;57.698;11.986;2023-08-07T01:36:57;1.63;;;1.50;;
14817;SDS011;7500;57.698;11.986;2023-08-07T01:39:25;1.50;;;1.40;;
14817;SDS011;7500;57.698;11.986;2023-08-07T01:41:52;2.07;;;1.17;;
14817;SDS011;7500;57.698;11.986;2023-08-07T01:44:18;1.40;;;1.30;;
14817;SDS011;7500;57.698;11.986;2023-08-07T01:46:45;1.47;;;1.30;;
14817;SDS011;7500;57.698;11.986;2023-08-07T01:49:11;1.20;;;1.10;;
14817;SDS011;7500;57.698;11.986;2023-08-07T01:51:38;1.83;;;1.20;;
14817;SDS011;7500;57.698;11.986;2023-08-07T01:54:04;2.10;;;1.20;;
14817;SDS011;7500;57.698;11.986;2023-08-07T01:56:32;1.67;;;1.30;;
14817;SDS011;7500;57.698;11.986;2023-08-07T01:58:59;2.20;;;1.23;;
14817;SDS011;7500;57.698;11.986;2023-08-07T02:01:25;2.20;;;1.40;;
14817;SDS011;7500;57.698;11.986;2023-08-07T02:03:52;1.43;;;1.33;;
14817;SDS011;7500;57.698;11.986;2023-08-07T02:06:18;1.70;;;1.30;;
14817;SDS011;7500;57.698;11.986;2023-08-07T02:08:45;1.93;;;1.27;;
14817;SDS011;7500;57.698;11.986;2023-08-07T02:11:12;1.40;;;1.30;;
14817;SDS011;7500;57.698;11.986;2023-08-07T02:13:39;2.17;;;1.13;;
14817;SDS011;7500;57.698;11.986;2023-08-07T02:16:06;2.70;;;1.20;;
14817;SDS011;7500;57.698;11.986;2023-08-07T02:18:33;1.20;;;1.10;;
14817;SDS011;7500;57.698;11.986;2023-08-07T02:21:00;1.40;;;1.30;;
14817;SDS011;7500;57.698;11.986;2023-08-07T02:23:27;1.30;;;1.20;;
14817;SDS011;7500;57.698;11.986;2023-08-07T02:25:54;1.20;;;1.10;;
14817;SDS011;7500;57.698;11.986;2023-08-07T02:28:20;1.40;;;1.30;;
14817;SDS011;7500;57.698;11.986;2023-08-07T02:30:48;1.43;;;1.30;;
14817;SDS011;7500;57.698;11.986;2023-08-07T02:33:16;4.90;;;1.20;;
14817;SDS011;7500;57.698;11.986;2023-08-07T02:35:43;3.60;;;1.20;;
14817;SDS011;7500;57.698;11.986;2023-08-07T02:38:09;1.10;;;1.10;;
14817;SDS011;7500;57.698;11.986;2023-08-07T02:40:36;1.13;;;1.03;;
14817;SDS011;7500;57.698;11.986;2023-08-07T02:43:02;2.50;;;1.37;;
14817;SDS011;7500;57.698;11.986;2023-08-07T02:45:29;1.30;;;1.20;;
14817;SDS011;7500;57.698;11.986;2023-08-07T02:47:57;1.10;;;1.00;;
14817;SDS011;7500;57.698;11.986;2023-08-07T02:50:24;0.90;;;0.90;;
14817;SDS011;7500;57.698;11.986;2023-08-07T02:52:52;1.97;;;1.20;;
14817;SDS011;7500;57.698;11.986;2023-08-07T02:55:19;0.93;;;0.93;;
14817;SDS011;7500;57.698;11.986;2023-08-07T02:57:45;3.17;;;1.17;;
14817;SDS011;7500;57.698;11.986;2023-08-07T03:00:12;1.00;;;1.00;;
14817;SDS011;7500;57.698;11.986;2023-08-07T03:02:39;1.30;;;0.90;;
14817;SDS011;7500;57.698;11.986;2023-08-07T03:05:07;1.10;;;1.00;;
14817;SDS011;7500;57.698;11.986;2023-08-07T03:07:34;1.00;;;0.90;;
14817;SDS011;7500;57.698;11.986;2023-08-07T03:10:01;1.37;;;1.00;;
14817;SDS011;7500;57.698;11.986;2023-08-07T03:12:28;1.23;;;0.93;;
14817;SDS011;7500;57.698;11.986;2023-08-07T03:14:55;1.73;;;0.90;;
14817;SDS011;7500;57.698;11.986;2023-08-07T03:17:21;1.10;;;0.90;;
14817;SDS011;7500;57.698;11.986;2023-08-07T03:19:48;1.10;;;1.00;;
14817;SDS011;7500;57.698;11.986;2023-08-07T03:22:16;0.93;;;0.70;;
14817;SDS011;7500;57.698;11.986;2023-08-07T03:24:45;0.97;;;0.93;;
14817;SDS011;7500;57.698;11.986;2023-08-07T03:27:12;0.80;;;0.70;;
14817;SDS011;7500;57.698;11.986;2023-08-07T03:29:39;1.10;;;0.90;;
14817;SDS011;7500;57.698;11.986;2023-08-07T03:32:06;0.87;;;0.87;;
14817;SDS011;7500;57.698;11.986;2023-08-07T03:34:32;2.97;;;1.07;;
14817;SDS011;7500;57.698;11.986;2023-08-07T03:36:59;0.70;;;0.70;;
14817;SDS011;7500;57.698;11.986;2023-08-07T03:39:27;0.60;;;0.60;;
14817;SDS011;7500;57.698;11.986;2023-08-07T03:41:53;0.70;;;0.63;;
14817;SDS011;7500;57.698;11.986;2023-08-07T03:44:20;1.13;;;0.80;;
14817;SDS011;7500;57.698;11.986;2023-08-07T03:46:46;1.97;;;0.80;;
14817;SDS011;7500;57.698;11.986;2023-08-07T03:49:13;0.67;;;0.60;;
14817;SDS011;7500;57.698;11.986;2023-08-07T03:51:40;1.60;;;1.07;;
14817;SDS011;7500;57.698;11.986;2023-08-07T03:54:06;0.80;;;0.80;;
14817;SDS011;7500;57.698;11.986;2023-08-07T03:56:34;0.83;;;0.73;;
14817;SDS011;7500;57.698;11.986;2023-08-07T03:59:03;0.80;;;0.80;;
14817;SDS011;7500;57.698;11.986;2023-08-07T04:01:29;1.13;;;0.97;;
14817;SDS011;7500;57.698;11.986;2023-08-07T04:03:56;3.13;;;1.00;;
14817;SDS011;7500;57.698;11.986;2023-08-07T04:06:22;0.80;;;0.80;;
14817;SDS011;7500;57.698;11.986;2023-08-07T04:08:49;1.40;;;0.97;;
14817;SDS011;7500;57.698;11.986;2023-08-07T04:11:15;0.93;;;0.80;;
14817;SDS011;7500;57.698;11.986;2023-08-07T04:13:43;1.47;;;0.70;;
14817;SDS011;7500;57.698;11.986;2023-08-07T04:16:10;1.33;;;0.93;;
14817;SDS011;7500;57.698;11.986;2023-08-07T04:18:36;1.40;;;0.80;;
14817;SDS011;7500;57.698;11.986;2023-08-07T04:21:03;3.93;;;1.67;;
14817;SDS011;7500;57.698;11.986;2023-08-07T04:23:30;1.73;;;1.00;;
14817;SDS011;7500;57.698;11.986;2023-08-07T04:25:56;1.47;;;0.90;;
14817;SDS011;7500;57.698;11.986;2023-08-07T04:28:23;3.27;;;1.27;;
14817;SDS011;7500;57.698;11.986;2023-08-07T04:30:51;0.73;;;0.73;;
14817;SDS011;7500;57.698;11.986;2023-08-07T04:33:18;1.77;;;1.10;;
14817;SDS011;7500;57.698;11.986;2023-08-07T04:35:45;1.20;;;0.87;;
14817;SDS011;7500;57.698;11.986;2023-08-07T04:38:12;1.20;;;1.10;;
14817;SDS011;7500;57.698;11.986;2023-08-07T04:40:43;1.20;;;1.10;;
14817;SDS011;7500;57.698;11.986;2023-08-07T04:43:09;1.70;;;1.03;;
14817;SDS011;7500;57.698;11.986;2023-08-07T04:45:36;1.57;;;0.87;;
14817;SDS011;7500;57.698;11.986;2023-08-07T04:48:06;2.53;;;1.10;;
14817;SDS011;7500;57.698;11.986;2023-08-07T04:50:32;0.60;;;0.60;;
14817;SDS011;7500;57.698;11.986;2023-08-07T04:52:59;1.20;;;1.00;;
14817;SDS011;7500;57.698;11.986;2023-08-07T04:55:25;1.23;;;0.97;;
14817;SDS011;7500;57.698;11.986;2023-08-07T04:57:52;1.17;;;0.77;;
14817;SDS011;7500;57.698;11.986;2023-08-07T05:00:21;1.50;;;0.83;;
14817;SDS011;7500;57.698;11.986;2023-08-07T05:02:48;1.90;;;0.93;;
14817;SDS011;7500;57.698;11.986;2023-08-07T05:05:16;0.93;;;0.90;;
14817;SDS011;7500;57.698;11.986;2023-08-07T05:07:42;0.93;;;0.90;;
14817;SDS011;7500;57.698;11.986;2023-08-07T05:10:09;0.77;;;0.77;;
14817;SDS011;7500;57.698;11.986;2023-08-07T05:12:36;0.80;;;0.70;;
14817;SDS011;7500;57.698;11.986;2023-08-07T05:15:02;0.70;;;0.60;;
14817;SDS011;7500;57.698;11.986;2023-08-07T05:17:30;1.53;;;0.70;;
14817;SDS011;7500;57.698;11.986;2023-08-07T05:19:56;0.90;;;0.70;;
14817;SDS011;7500;57.698;11.986;2023-08-07T05:22:24;0.90;;;0.70;;
14817;SDS011;7500;57.698;11.986;2023-08-07T05:24:50;3.33;;;1.00;;
14817;SDS011;7500;57.698;11.986;2023-08-07T05:27:17;2.30;;;0.80;;
14817;SDS011;7500;57.698;11.986;2023-08-07T05:29:44;1.90;;;0.90;;
14817;SDS011;7500;57.698;11.986;2023-08-07T05:32:10;2.23;;;1.40;;
14817;SDS011;7500;57.698;11.986;2023-08-07T05:34:37;1.30;;;1.20;;
14817;SDS011;7500;57.698;11.986;2023-08-07T05:37:04;2.40;;;1.03;;
14817;SDS011;7500;57.698;11.986;2023-08-07T05:39:32;2.20;;;1.00;;
14817;SDS011;7500;57.698;11.986;2023-08-07T05:41:58;1.10;;;1.07;;
14817;SDS011;7500;57.698;11.986;2023-08-07T05:44:25;1.07;;;0.83;;
14817;SDS011;7500;57.698;11.986;2023-08-07T05:46:51;1.40;;;0.90;;
14817;SDS011;7500;57.698;11.986;2023-08-07T05:49:18;1.83;;;1.00;;
14817;SDS011;7500;57.698;11.986;2023-08-07T05:51:45;0.80;;;0.80;;
14817;SDS011;7500;57.698;11.986;2023-08-07T05:54:12;1.33;;;1.00;;
14817;SDS011;7500;57.698;11.986;2023-08-07T05:56:40;1.30;;;0.97;;
14817;SDS011;7500;57.698;11.986;2023-08-07T05:59:07;1.00;;;1.00;;
14817;SDS011;7500;57.698;11.986;2023-08-07T06:01:40;1.33;;;0.77;;
14817;SDS011;7500;57.698;11.986;2023-08-07T06:04:06;1.17;;;0.80;;
14817;SDS011;7500;57.698;11.986;2023-08-07T06:06:34;1.10;;;0.70;;
14817;SDS011;7500;57.698;11.986;2023-08-07T06:09:01;1.03;;;0.93;;
14817;SDS011;7500;57.698;11.986;2023-08-07T06:11:28;0.67;;;0.60;;
14817;SDS011;7500;57.698;11.986;2023-08-07T06:13:56;1.53;;;0.93;;
14817;SDS011;7500;57.698;11.986;2023-08-07T06:16:22;0.90;;;0.80;;
14817;SDS011;7500;57.698;11.986;2023-08-07T06:18:49;1.67;;;1.20;;
14817;SDS011;7500;57.698;11.986;2023-08-07T06:21:15;0.90;;;0.60;;
14817;SDS011;7500;57.698;11.986;2023-08-07T06:23:42;1.40;;;1.30;;
14817;SDS011;7500;57.698;11.986;2023-08-07T06:26:08;1.40;;;1.13;;
14817;SDS011;7500;57.698;11.986;2023-08-07T06:28:35;1.30;;;0.90;;
14817;SDS011;7500;57.698;11.986;2023-08-07T06:31:04;1.03;;;0.63;;
14817;SDS011;7500;57.698;11.986;2023-08-07T06:33:30;0.80;;;0.70;;
14817;SDS011;7500;57.698;11.986;2023-08-07T06:35:58;2.13;;;0.90;;
14817;SDS011;7500;57.698;11.986;2023-08-07T06:38:24;1.63;;;0.93;;
14817;SDS011;7500;57.698;11.986;2023-08-07T06:40:51;0.60;;;0.60;;
14817;SDS011;7500;57.698;11.986;2023-08-07T06:43:18;0.50;;;0.50;;
14817;SDS011;7500;57.698;11.986;2023-08-07T06:45:46;0.67;;;0.67;;
14817;SDS011;7500;57.698;11.986;2023-08-07T06:48:14;0.97;;;0.70;;
14817;SDS011;7500;57.698;11.986;2023-08-07T06:50:40;0.60;;;0.60;;
14817;SDS011;7500;57.698;11.986;2023-08-07T06:53:07;2.00;;;0.77;;
14817;SDS011;7500;57.698;11.986;2023-08-07T06:55:34;1.03;;;0.93;;
14817;SDS011;7500;57.698;11.986;2023-08-07T06:58:00;3.97;;;1.20;;
14817;SDS011;7500;57.698;11.986;2023-08-07T07:00:27;0.97;;;0.90;;
14817;SDS011;7500;57.698;11.986;2023-08-07T07:02:53;0.83;;;0.70;;
14817;SDS011;7500;57.698;11.986;2023-08-07T07:05:21;0.60;;;0.60;;
14817;SDS011;7500;57.698;11.986;2023-08-07T07:07:48;1.27;;;0.90;;
14817;SDS011;7500;57.698;11.986;2023-08-07T07:10:14;1.40;;;1.17;;
14817;SDS011;7500;57.698;11.986;2023-08-07T07:12:41;1.73;;;1.47;;
14817;SDS011;7500;57.698;11.986;2023-08-07T07:15:08;1.80;;;1.70;;
14817;SDS011;7500;57.698;11.986;2023-08-07T07:17:35;1.70;;;1.60;;
14817;SDS011;7500;57.698;11.986;2023-08-07T07:20:01;1.83;;;1.73;;
14817;SDS011;7500;57.698;11.986;2023-08-07T07:22:29;3.63;;;2.53;;
14817;SDS011;7500;57.698;11.986;2023-08-07T07:24:56;2.43;;;2.23;;
14817;SDS011;7500;57.698;11.986;2023-08-07T07:27:22;3.10;;;2.47;;
14817;SDS011;7500;57.698;11.986;2023-08-07T07:29:51;3.13;;;2.83;;
14817;SDS011;7500;57.698;11.986;2023-08-07T07:32:17;4.17;;;3.77;;
14817;SDS011;7500;57.698;11.986;2023-08-07T07:34:44;3.97;;;3.63;;
14817;SDS011;7500;57.698;11.986;2023-08-07T07:37:11;5.93;;;4.47;;
14817;SDS011;7500;57.698;11.986;2023-08-07T07:39:40;5.03;;;4.60;;
14817;SDS011;7500;57.698;11.986;2023-08-07T07:42:07;4.73;;;4.10;;
14817;SDS011;7500;57.698;11.986;2023-08-07T07:44:33;5.07;;;4.57;;
14817;SDS011;7500;57.698;11.986;2023-08-07T07:47:00;4.33;;;3.80;;
14817;SDS011;7500;57.698;11.986;2023-08-07T07:49:27;2.57;;;2.37;;
14817;SDS011;7500;57.698;11.986;2023-08-07T07:51:53;3.67;;;3.27;;
14817;SDS011;7500;57.698;11.986;2023-08-07T07:54:20;3.00;;;2.80;;
14817;SDS011;7500;57.698;11.986;2023-08-07T07:56:48;4.97;;;3.70;;
14817;SDS011;7500;57.698;11.986;2023-08-07T07:59:14;3.13;;;2.83;;
14817;SDS011;7500;57.698;11.986;2023-08-07T08:01:41;3.60;;;2.60;;
14817;SDS011;7500;57.698;11.986;2023-08-07T08:04:07;2.77;;;2.57;;
14817;SDS011;7500;57.698;11.986;2023-08-07T08:06:35;2.47;;;2.30;;
14817;SDS011;7500;57.698;11.986;2023-08-07T08:09:01;3.73;;;2.80;;
14817;SDS011;7500;57.698;11.986;2023-08-07T08:11:29;2.50;;;2.30;;
14817;SDS011;7500;57.698;11.986;2023-08-07T08:13:57;2.50;;;2.30;;
14817;SDS011;7500;57.698;11.986;2023-08-07T08:16:24;2.63;;;2.43;;
14817;SDS011;7500;57.698;11.986;2023-08-07T08:18:50;2.97;;;2.60;;
14817;SDS011;7500;57.698;11.986;2023-08-07T08:21:17;3.27;;;2.53;;
14817;SDS011;7500;57.698;11.986;2023-08-07T08:23:43;3.30;;;2.30;;
14817;SDS011;7500;57.698;11.986;2023-08-07T08:26:10;3.60;;;3.30;;
14817;SDS011;7500;57.698;11.986;2023-08-07T08:28:37;2.60;;;2.40;;
14817;SDS011;7500;57.698;11.986;2023-08-07T08:31:06;4.03;;;3.10;;
14817;SDS011;7500;57.698;11.986;2023-08-07T08:33:33;4.07;;;3.43;;
14817;SDS011;7500;57.698;11.986;2023-08-07T08:36:00;3.17;;;2.87;;
14817;SDS011;7500;57.698;11.986;2023-08-07T08:38:27;3.27;;;3.00;;
14817;SDS011;7500;57.698;11.986;2023-08-07T08:40:57;3.13;;;2.80;;
14817;SDS011;7500;57.698;11.986;2023-08-07T08:43:25;4.20;;;3.10;;
14817;SDS011;7500;57.698;11.986;2023-08-07T08:45:52;4.50;;;2.80;;
14817;SDS011;7500;57.698;11.986;2023-08-07T08:48:20;2.90;;;2.70;;
14817;SDS011;7500;57.698;11.986;2023-08-07T08:50:49;4.00;;;3.27;;
14817;SDS011;7500;57.698;11.986;2023-08-07T08:53:16;4.03;;;3.63;;
14817;SDS011;7500;57.698;11.986;2023-08-07T08:55:43;3.93;;;3.27;;
14817;SDS011;7500;57.698;11.986;2023-08-07T08:58:12;4.03;;;3.63;;
14817;SDS011;7500;57.698;11.986;2023-08-07T09:00:39;4.17;;;3.20;;
14817;SDS011;7500;57.698;11.986;2023-08-07T09:03:06;5.03;;;3.37;;
14817;SDS011;7500;57.698;11.986;2023-08-07T09:05:34;3.70;;;3.07;;
14817;SDS011;7500;57.698;11.986;2023-08-07T09:08:01;3.50;;;3.20;;
14817;SDS011;7500;57.698;11.986;2023-08-07T09:10:28;4.97;;;2.90;;
14817;SDS011;7500;57.698;11.986;2023-08-07T09:12:57;3.43;;;3.10;;
14817;SDS011;7500;57.698;11.986;2023-08-07T09:15:26;3.37;;;2.60;;
14817;SDS011;7500;57.698;11.986;2023-08-07T09:17:54;3.70;;;3.23;;
14817;SDS011;7500;57.698;11.986;2023-08-07T09:20:21;3.93;;;2.70;;
14817;SDS011;7500;57.698;11.986;2023-08-07T09:22:49;4.23;;;3.23;;
14817;SDS011;7500;57.698;11.986;2023-08-07T09:25:19;3.23;;;2.93;;
14817;SDS011;7500;57.698;11.986;2023-08-07T09:27:52;2.93;;;2.37;;
14817;SDS011;7500;57.698;11.986;2023-08-07T09:30:20;2.83;;;2.33;;
14817;SDS011;7500;57.698;11.986;2023-08-07T09:32:47;1.93;;;1.70;;
14817;SDS011;7500;57.698;11.986;2023-08-07T09:35:14;2.07;;;1.87;;
14817;SDS011;7500;57.698;11.986;2023-08-07T09:37:41;3.07;;;1.70;;
14817;SDS011;7500;57.698;11.986;2023-08-07T09:40:10;3.30;;;2.17;;
14817;SDS011;7500;57.698;11.986;2023-08-07T09:42:40;2.87;;;1.90;;
14817;SDS011;7500;57.698;11.986;2023-08-07T09:45:18;2.13;;;1.93;;
14817;SDS011;7500;57.698;11.986;2023-08-07T09:47:44;2.53;;;2.00;;
14817;SDS011;7500;57.698;11.986;2023-08-07T09:50:14;2.20;;;1.87;;
14817;SDS011;7500;57.698;11.986;2023-08-07T09:52:41;4.53;;;2.20;;
14817;SDS011;7500;57.698;11.986;2023-08-07T09:55:08;2.30;;;2.10;;
14817;SDS011;7500;57.698;11.986;2023-08-07T09:57:36;3.80;;;2.47;;
14817;SDS011;7500;57.698;11.986;2023-08-07T10:00:03;2.57;;;1.90;;
14817;SDS011;7500;57.698;11.986;2023-08-07T10:02:36;3.63;;;2.43;;
14817;SDS011;7500;57.698;11.986;2023-08-07T10:05:03;5.30;;;2.90;;
14817;SDS011;7500;57.698;11.986;2023-08-07T10:07:30;2.40;;;2.10;;
14817;SDS011;7500;57.698;11.986;2023-08-07T10:09:57;1.90;;;1.67;;
14817;SDS011;7500;57.698;11.986;2023-08-07T10:12:24;2.80;;;2.47;;
14817;SDS011;7500;57.698;11.986;2023-08-07T10:14:53;2.23;;;2.03;;
14817;SDS011;7500;57.698;11.986;2023-08-07T10:17:20;2.97;;;2.20;;
14817;SDS011;7500;57.698;11.986;2023-08-07T10:19:47;3.60;;;3.03;;
14817;SDS011;7500;57.698;11.986;2023-08-07T10:22:14;4.87;;;4.27;;
14817;SDS011;7500;57.698;11.986;2023-08-07T10:24:42;5.43;;;3.77;;
14817;SDS011;7500;57.698;11.986;2023-08-07T10:27:10;4.47;;;3.47;;
14817;SDS011;7500;57.698;11.986;2023-08-07T10:29:37;3.87;;;3.40;;
14817;SDS011;7500;57.698;11.986;2023-08-07T10:32:06;4.03;;;3.40;;
14817;SDS011;7500;57.698;11.986;2023-08-07T10:34:33;4.50;;;4.10;;
14817;SDS011;7500;57.698;11.986;2023-08-07T10:37:00;2.57;;;2.37;;
14817;SDS011;7500;57.698;11.986;2023-08-07T10:39:27;4.17;;;2.67;;
14817;SDS011;7500;57.698;11.986;2023-08-07T10:41:53;3.73;;;3.10;;
14817;SDS011;7500;57.698;11.986;2023-08-07T10:44:21;3.20;;;2.50;;
14817;SDS011;7500;57.698;11.986;2023-08-07T10:46:48;3.83;;;2.70;;
14817;SDS011;7500;57.698;11.986;2023-08-07T10:49:33;4.77;;;3.23;;
14817;SDS011;7500;57.698;11.986;2023-08-07T10:52:01;4.87;;;3.37;;
14817;SDS011;7500;57.698;11.986;2023-08-07T10:54:28;4.20;;;3.27;;
14817;SDS011;7500;57.698;11.986;2023-08-07T10:56:54;4.37;;;3.30;;
14817;SDS011;7500;57.698;11.986;2023-08-07T10:59:21;3.70;;;2.77;;
14817;SDS011;7500;57.698;11.986;2023-08-07T11:01:50;5.53;;;3.20;;
14817;SDS011;7500;57.698;11.986;2023-08-07T11:04:17;4.13;;;3.20;;
14817;SDS011;7500;57.698;11.986;2023-08-07T11:06:47;4.63;;;2.97;;
14817;SDS011;7500;57.698;11.986;2023-08-07T11:09:14;5.57;;;3.17;;
14817;SDS011;7500;57.698;11.986;2023-08-07T11:11:41;4.47;;;3.37;;
14817;SDS011;7500;57.698;11.986;2023-08-07T11:14:08;4.50;;;3.07;;
14817;SDS011;7500;57.698;11.986;2023-08-07T11:16:36;5.73;;;3.13;;
14817;SDS011;7500;57.698;11.986;2023-08-07T11:19:03;4.07;;;3.67;;
14817;SDS011;7500;57.698;11.986;2023-08-07T11:21:30;4.53;;;3.93;;
14817;SDS011;7500;57.698;11.986;2023-08-07T11:23:58;6.50;;;3.60;;
14817;SDS011;7500;57.698;11.986;2023-08-07T11:26:25;6.37;;;5.27;;
14817;SDS011;7500;57.698;11.986;2023-08-07T11:28:53;6.10;;;4.53;;
14817;SDS011;7500;57.698;11.986;2023-08-07T11:31:20;4.90;;;3.70;;
14817;SDS011;7500;57.698;11.986;2023-08-07T11:33:50;4.00;;;3.27;;
14817;SDS011;7500;57.698;11.986;2023-08-07T11:36:16;4.70;;;3.70;;
14817;SDS011;7500;57.698;11.986;2023-08-07T11:38:44;6.50;;;3.47;;
14817;SDS011;7500;57.698;11.986;2023-08-07T11:41:15;4.50;;;3.57;;
14817;SDS011;7500;57.698;11.986;2023-08-07T11:43:42;5.00;;;3.60;;
14817;SDS011;7500;57.698;11.986;2023-08-07T11:46:09;6.63;;;3.50;;
14817;SDS011;7500;57.698;11.986;2023-08-07T11:48:37;5.20;;;4.10;;
14817;SDS011;7500;57.698;11.986;2023-08-07T11:51:05;7.90;;;4.87;;
14817;SDS011;7500;57.698;11.986;2023-08-07T11:53:33;7.73;;;4.50;;
14817;SDS011;7500;57.698;11.986;2023-08-07T11:56:01;5.63;;;4.13;;
14817;SDS011;7500;57.698;11.986;2023-08-07T11:58:33;7.37;;;4.67;;
14817;SDS011;7500;57.698;11.986;2023-08-07T12:01:03;5.37;;;3.90;;
14817;SDS011;7500;57.698;11.986;2023-08-07T12:03:30;10.73;;;5.47;;
14817;SDS011;7500;57.698;11.986;2023-08-07T12:05:58;8.03;;;4.93;;
14817;SDS011;7500;57.698;11.986;2023-08-07T12:08:25;9.63;;;4.83;;
14817;SDS011;7500;57.698;11.986;2023-08-07T12:10:57;9.60;;;5.57;;
14817;SDS011;7500;57.698;11.986;2023-08-07T12:13:24;10.67;;;5.57;;
14817;SDS011;7500;57.698;11.986;2023-08-07T12:15:54;6.13;;;4.70;;
14817;SDS011;7500;57.698;11.986;2023-08-07T12:18:21;8.43;;;5.60;;
14817;SDS011;7500;57.698;11.986;2023-08-07T12:20:48;7.47;;;5.10;;
14817;SDS011;7500;57.698;11.986;2023-08-07T12:23:15;7.80;;;5.33;;
14817;SDS011;7500;57.698;11.986;2023-08-07T12:25:42;6.00;;;4.57;;
14817;SDS011;7500;57.698;11.986;2023-08-07T12:28:09;6.50;;;4.17;;
14817;SDS011;7500;57.698;11.986;2023-08-07T12:30:35;7.40;;;4.30;;
14817;SDS011;7500;57.698;11.986;2023-08-07T12:33:04;5.17;;;4.20;;
14817;SDS011;7500;57.698;11.986;2023-08-07T12:35:32;6.80;;;4.60;;
14817;SDS011;7500;57.698;11.986;2023-08-07T12:37:59;7.10;;;4.47;;
14817;SDS011;7500;57.698;11.986;2023-08-07T12:40:26;7.50;;;5.10;;
14817;SDS011;7500;57.698;11.986;2023-08-07T12:42:53;6.73;;;4.93;;
14817;SDS011;7500;57.698;11.986;2023-08-07T12:45:20;10.57;;;5.50;;
14817;SDS011;7500;57.698;11.986;2023-08-07T12:47:46;8.90;;;5.63;;
14817;SDS011;7500;57.698;11.986;2023-08-07T12:50:14;5.87;;;4.93;;
14817;SDS011;7500;57.698;11.986;2023-08-07T12:52:41;7.47;;;4.90;;
14817;SDS011;7500;57.698;11.986;2023-08-07T12:55:07;5.97;;;4.23;;
14817;SDS011;7500;57.698;11.986;2023-08-07T12:57:34;6.70;;;4.30;;
14817;SDS011;7500;57.698;11.986;2023-08-07T13:00:01;7.47;;;4.80;;
14817;SDS011;7500;57.698;11.986;2023-08-07T13:02:28;15.33;;;6.17;;
14817;SDS011;7500;57.698;11.986;2023-08-07T13:04:54;11.70;;;6.10;;
14817;SDS011;7500;57.698;11.986;2023-08-07T13:07:23;11.43;;;5.30;;
14817;SDS011;7500;57.698;11.986;2023-08-07T13:09:50;9.90;;;5.20;;
14817;SDS011;7500;57.698;11.986;2023-08-07T13:12:17;4.27;;;3.73;;
14817;SDS011;7500;57.698;11.986;2023-08-07T13:14:43;5.30;;;3.70;;
14817;SDS011;7500;57.698;11.986;2023-08-07T13:17:10;6.97;;;4.73;;
14817;SDS011;7500;57.698;11.986;2023-08-07T13:19:36;8.07;;;7.27;;
14817;SDS011;7500;57.698;11.986;2023-08-07T13:22:03;7.10;;;5.33;;
14817;SDS011;7500;57.698;11.986;2023-08-07T13:24:31;4.10;;;3.50;;
14817;SDS011;7500;57.698;11.986;2023-08-07T13:26:58;4.40;;;3.13;;
14817;SDS011;7500;57.698;11.986;2023-08-07T13:29:24;6.67;;;3.53;;
14817;SDS011;7500;57.698;11.986;2023-08-07T13:31:51;2.70;;;2.47;;
14817;SDS011;7500;57.698;11.986;2023-08-07T13:34:17;4.07;;;2.37;;
14817;SDS011;7500;57.698;11.986;2023-08-07T13:36:44;2.63;;;2.23;;
14817;SDS011;7500;57.698;11.986;2023-08-07T13:39:11;3.42;;;2.67;;
14817;SDS011;7500;57.698;11.986;2023-08-07T13:41:40;6.00;;;4.30;;
14817;SDS011;7500;57.698;11.986;2023-08-07T13:44:06;6.00;;;4.67;;
14817;SDS011;7500;57.698;11.986;2023-08-07T13:46:33;5.50;;;4.20;;
14817;SDS011;7500;57.698;11.986;2023-08-07T13:48:59;6.00;;;4.50;;
14817;SDS011;7500;57.698;11.986;2023-08-07T13:51:26;5.33;;;4.27;;
14817;SDS011;7500;57.698;11.986;2023-08-07T13:53:53;4.00;;;3.40;;
14817;SDS011;7500;57.698;11.986;2023-08-07T13:56:19;3.77;;;2.90;;
14817;SDS011;7500;57.698;11.986;2023-08-07T13:58:47;3.90;;;2.50;;
14817;SDS011;7500;57.698;11.986;2023-08-07T14:01:14;4.23;;;2.17;;
14817;SDS011;7500;57.698;11.986;2023-08-07T14:03:40;4.07;;;1.83;;
14817;SDS011;7500;57.698;11.986;2023-08-07T14:06:07;3.13;;;2.37;;
14817;SDS011;7500;57.698;11.986;2023-08-07T14:08:33;3.27;;;1.87;;
14817;SDS011;7500;57.698;11.986;2023-08-07T14:11:00;2.33;;;2.07;;
14817;SDS011;7500;57.698;11.986;2023-08-07T14:13:26;5.37;;;2.50;;
14817;SDS011;7500;57.698;11.986;2023-08-07T14:15:54;1.80;;;1.70;;
14817;SDS011;7500;57.698;11.986;2023-08-07T14:18:21;2.20;;;2.00;;
14817;SDS011;7500;57.698;11.986;2023-08-07T14:20:47;4.50;;;2.67;;
14817;SDS011;7500;57.698;11.986;2023-08-07T14:23:14;3.27;;;2.23;;
14817;SDS011;7500;57.698;11.986;2023-08-07T14:25:40;3.97;;;1.70;;
14817;SDS011;7500;57.698;11.986;2023-08-07T14:28:08;4.77;;;2.07;;
14817;SDS011;7500;57.698;11.986;2023-08-07T14:30:34;3.73;;;2.00;;
14817;SDS011;7500;57.698;11.986;2023-08-07T14:33:02;3.43;;;1.50;;
14817;SDS011;7500;57.698;11.986;2023-08-07T14:35:29;1.97;;;1.10;;
14817;SDS011;7500;57.698;11.986;2023-08-07T14:37:55;2.80;;;1.90;;
14817;SDS011;7500;57.698;11.986;2023-08-07T14:40:22;3.50;;;1.80;;
14817;SDS011;7500;57.698;11.986;2023-08-07T14:42:48;1.67;;;1.40;;
14817;SDS011;7500;57.698;11.986;2023-08-07T14:45:15;2.37;;;1.70;;
14817;SDS011;7500;57.698;11.986;2023-08-07T14:47:42;3.60;;;1.83;;